Time;durP1;ratioP1;P1;durP2;ratioP2;P2;SDS_P1;SDS_P2;PMS_P1;PMS_P2;Temp;Humidity;BMP_temperature;BMP_pressure;BME280_temperature;BME280_humidity;BME280_pressure;Samples;Min_cycle;Max_cycle;Signal;HPM_P1;HPM_P2
2021/06/22 00:01:18;;;;;;;16.63;15.70;;;19.70;99.90;;;;;;5113650;28;20457;-72
2021/06/22 00:03:45;;;;;;;16.57;15.87;;;19.60;99.90;;;;;;5112815;28;20487;-72
2021/06/22 00:06:12;;;;;;;17.00;16.20;;;19.50;99.90;;;;;;5113187;28;20807;-72
2021/06/22 00:08:38;;;;;;;16.90;16.00;;;19.60;99.90;;;;;;5113292;28;20456;-72
2021/06/22 00:11:06;;;;;;;17.43;16.57;;;19.60;99.90;;;;;;5113307;28;20445;-72
2021/06/22 00:13:32;;;;;;;19.00;17.77;;;19.60;99.90;;;;;;5113077;28;20457;-72
2021/06/22 00:15:59;;;;;;;19.37;18.17;;;19.60;99.90;;;;;;5113334;28;20460;-72
2021/06/22 00:18:27;;;;;;;17.93;16.73;;;19.70;99.90;;;;;;5113013;28;20506;-72
2021/06/22 00:20:54;;;;;;;17.90;16.67;;;19.70;99.90;;;;;;5112758;28;20469;-72
2021/06/22 00:23:21;;;;;;;17.90;17.00;;;19.80;99.90;;;;;;5112810;28;20792;-71
2021/06/22 00:25:47;;;;;;;17.50;16.70;;;19.80;99.90;;;;;;5113019;28;20866;-71
2021/06/22 00:28:14;;;;;;;18.50;17.47;;;19.80;99.90;;;;;;5113413;28;20449;-72
2021/06/22 00:30:41;;;;;;;18.67;17.70;;;19.80;99.90;;;;;;5112864;28;20457;-71
2021/06/22 00:33:08;;;;;;;17.40;16.60;;;19.70;99.90;;;;;;5112573;28;20460;-73
2021/06/22 00:35:36;;;;;;;17.40;16.50;;;19.70;99.90;;;;;;5112770;28;20453;-73
2021/06/22 00:38:02;;;;;;;17.63;16.77;;;19.80;99.90;;;;;;5112637;28;20453;-73
2021/06/22 00:40:29;;;;;;;16.77;15.87;;;19.80;99.90;;;;;;5112429;28;20989;-73
2021/06/22 00:42:56;;;;;;;16.97;16.17;;;19.80;99.90;;;;;;5112470;28;20449;-73
2021/06/22 00:45:27;;;;;;;18.33;16.90;;;19.80;99.90;;;;;;5112388;28;20480;-72
2021/06/22 00:47:54;;;;;;;18.00;17.10;;;19.80;99.90;;;;;;5112402;28;20475;-71
2021/06/22 00:50:21;;;;;;;19.00;17.90;;;19.70;99.90;;;;;;5112589;28;20450;-72
2021/06/22 00:52:49;;;;;;;18.77;17.77;;;19.60;99.90;;;;;;5112129;28;20943;-72
2021/06/22 00:55:28;;;;;;;19.07;18.07;;;19.70;99.90;;;;;;5112266;28;20450;-72
2021/06/22 00:57:55;;;;;;;19.00;18.00;;;19.70;99.90;;;;;;5112426;28;20453;-72
2021/06/22 01:00:22;;;;;;;20.70;19.50;;;19.70;99.90;;;;;;5112165;28;20460;-72
2021/06/22 01:02:49;;;;;;;20.00;18.60;;;19.70;99.90;;;;;;5112240;28;20446;-72
2021/06/22 01:05:16;;;;;;;19.60;18.47;;;19.70;99.90;;;;;;5112011;28;20473;-72
2021/06/22 01:07:43;;;;;;;20.30;19.03;;;19.70;99.90;;;;;;5112216;28;20462;-72
2021/06/22 01:10:12;;;;;;;20.20;18.90;;;19.70;99.90;;;;;;5111976;28;20445;-72
2021/06/22 01:12:39;;;;;;;20.03;18.90;;;19.60;99.90;;;;;;5112139;28;20445;-72
2021/06/22 01:15:13;;;;;;;20.70;19.27;;;19.70;99.90;;;;;;5110864;28;21096;-71
2021/06/22 01:17:40;;;;;;;19.83;18.73;;;19.70;99.90;;;;;;5111912;28;20453;-71
2021/06/22 01:20:08;;;;;;;18.60;17.60;;;19.90;99.90;;;;;;5111714;28;20484;-70
2021/06/22 01:22:36;;;;;;;17.63;16.70;;;19.90;99.90;;;;;;5111642;28;20438;-71
2021/06/22 01:25:03;;;;;;;17.47;16.63;;;19.90;99.90;;;;;;5111711;28;20481;-71
2021/06/22 01:27:30;;;;;;;16.80;15.90;;;20.00;99.90;;;;;;5111694;28;20456;-71
2021/06/22 01:30:00;;;;;;;16.87;15.97;;;20.10;99.90;;;;;;5111728;28;20449;-71
2021/06/22 01:32:27;;;;;;;15.97;15.17;;;20.10;99.90;;;;;;5112221;28;20446;-71
2021/06/22 01:34:56;;;;;;;16.10;15.20;;;20.10;99.90;;;;;;5111644;28;20441;-74
2021/06/22 01:37:22;;;;;;;15.97;15.17;;;20.10;99.90;;;;;;5111743;28;20453;-71
2021/06/22 01:39:50;;;;;;;15.73;14.93;;;20.10;99.90;;;;;;5111469;28;20461;-71
2021/06/22 01:42:17;;;;;;;15.30;14.57;;;20.10;99.90;;;;;;5111456;28;20450;-71
2021/06/22 01:44:46;;;;;;;14.83;14.10;;;20.00;99.90;;;;;;5111757;28;20484;-71
2021/06/22 01:47:13;;;;;;;15.13;14.43;;;20.00;99.90;;;;;;5111972;28;20570;-72
2021/06/22 01:49:40;;;;;;;14.60;13.97;;;19.80;99.90;;;;;;5111547;28;20457;-71
2021/06/22 01:52:07;;;;;;;14.20;13.60;;;19.80;99.90;;;;;;5111417;28;20460;-71
2021/06/22 01:54:34;;;;;;;15.03;14.30;;;19.70;99.90;;;;;;5111370;28;20958;-71
2021/06/22 01:57:02;;;;;;;14.53;13.83;;;19.40;99.90;;;;;;5111294;28;20453;-71
2021/06/22 01:59:29;;;;;;;14.70;14.10;;;19.30;99.90;;;;;;5111547;28;20445;-70
2021/06/22 02:01:56;;;;;;;15.20;14.30;;;19.20;99.90;;;;;;5111427;28;20452;-72
2021/06/22 02:04:23;;;;;;;15.93;15.33;;;19.10;99.90;;;;;;5111404;28;20891;-71
2021/06/22 02:06:50;;;;;;;15.17;14.57;;;19.00;99.90;;;;;;5111270;28;20548;-71
2021/06/22 02:09:16;;;;;;;15.67;14.87;;;18.90;99.90;;;;;;5111124;28;20519;-71
2021/06/22 02:11:43;;;;;;;15.90;15.20;;;18.80;99.90;;;;;;5111336;28;21047;-70
2021/06/22 02:14:11;;;;;;;14.83;14.23;;;18.70;99.90;;;;;;5111429;28;20449;-71
2021/06/22 02:16:38;;;;;;;15.03;14.20;;;18.60;99.90;;;;;;5111301;28;20560;-72
2021/06/22 02:19:04;;;;;;;15.50;14.80;;;18.60;99.90;;;;;;5111020;28;20469;-72
2021/06/22 02:21:31;;;;;;;14.50;13.80;;;18.60;99.90;;;;;;5111353;28;20445;-72
2021/06/22 02:23:58;;;;;;;15.70;14.80;;;18.70;99.90;;;;;;5111214;28;20444;-72
2021/06/22 02:26:24;;;;;;;14.27;13.67;;;18.70;99.90;;;;;;5111255;28;20865;-71
2021/06/22 02:28:51;;;;;;;15.43;14.80;;;18.70;99.90;;;;;;5115242;28;20449;-71
2021/06/22 02:31:19;;;;;;;15.67;14.97;;;18.80;99.90;;;;;;5115304;28;20453;-72
2021/06/22 02:33:46;;;;;;;15.40;14.70;;;18.80;99.90;;;;;;5115183;28;20448;-73
2021/06/22 02:36:13;;;;;;;15.13;14.40;;;18.80;99.90;;;;;;5115211;28;20448;-72
2021/06/22 02:38:40;;;;;;;14.40;13.90;;;18.90;99.90;;;;;;5114643;28;20441;-72
2021/06/22 02:41:06;;;;;;;15.40;14.70;;;18.80;99.90;;;;;;5115003;28;20469;-72
2021/06/22 02:43:33;;;;;;;14.77;14.17;;;18.80;99.90;;;;;;5114954;28;20464;-71
2021/06/22 02:46:00;;;;;;;15.50;14.80;;;18.80;99.90;;;;;;5115008;28;20485;-71
2021/06/22 02:48:28;;;;;;;15.50;14.90;;;18.80;99.90;;;;;;5114801;28;20938;-71
2021/06/22 02:50:55;;;;;;;14.97;14.37;;;18.70;99.90;;;;;;5114565;28;20808;-71
2021/06/22 02:53:22;;;;;;;16.43;15.63;;;18.70;99.90;;;;;;5114727;28;20460;-71
2021/06/22 02:55:49;;;;;;;15.70;14.90;;;18.70;99.90;;;;;;5114674;28;20445;-70
2021/06/22 02:58:15;;;;;;;15.20;14.60;;;18.70;99.90;;;;;;5114890;28;20445;-69
2021/06/22 03:00:42;;;;;;;16.23;15.30;;;18.70;99.90;;;;;;5114298;28;20441;-71
2021/06/22 03:03:09;;;;;;;15.90;14.97;;;18.60;99.90;;;;;;5114449;28;20452;-71
2021/06/22 03:05:37;;;;;;;15.77;15.10;;;18.60;99.90;;;;;;5114503;28;20491;-71
2021/06/22 03:08:04;;;;;;;15.90;15.23;;;18.70;99.90;;;;;;5114434;28;20449;-71
2021/06/22 03:10:31;;;;;;;16.83;16.03;;;18.70;99.90;;;;;;5107611;28;20450;-71
2021/06/22 03:12:58;;;;;;;16.70;15.83;;;18.70;99.90;;;;;;5101679;28;20445;-70
2021/06/22 03:15:25;;;;;;;15.27;14.67;;;18.80;99.90;;;;;;5103508;28;21013;-71
2021/06/22 03:17:52;;;;;;;16.20;15.30;;;18.80;99.90;;;;;;5103541;28;20449;-71
2021/06/22 03:20:19;;;;;;;16.33;15.50;;;18.70;99.90;;;;;;5101054;28;20482;-71
2021/06/22 03:22:48;;;;;;;16.90;16.10;;;18.60;99.90;;;;;;5104770;28;20468;-71
2021/06/22 03:25:15;;;;;;;17.40;16.50;;;18.60;99.90;;;;;;5101522;28;20485;-71
2021/06/22 03:27:44;;;;;;;17.43;16.63;;;18.50;99.90;;;;;;5101910;28;20452;-72
2021/06/22 03:30:12;;;;;;;17.47;16.37;;;18.50;99.90;;;;;;5102148;28;20441;-72
2021/06/22 03:32:39;;;;;;;16.90;16.00;;;18.60;99.90;;;;;;5103476;28;20577;-72
2021/06/22 03:35:07;;;;;;;17.17;16.37;;;18.70;99.90;;;;;;5102291;28;20450;-72
2021/06/22 03:37:34;;;;;;;17.83;16.93;;;18.80;99.90;;;;;;5101335;28;20474;-72
2021/06/22 03:40:05;;;;;;;18.20;17.40;;;18.80;99.90;;;;;;5100222;28;20864;-71
2021/06/22 03:42:32;;;;;;;16.33;15.63;;;18.80;99.90;;;;;;5101819;28;20828;-71
2021/06/22 03:44:59;;;;;;;17.53;16.63;;;18.80;99.90;;;;;;5103189;28;20473;-71
2021/06/22 03:47:26;;;;;;;17.13;16.33;;;18.80;99.90;;;;;;5101993;28;20446;-71
2021/06/22 03:49:53;;;;;;;16.63;15.83;;;18.90;99.90;;;;;;5101435;28;20433;-72
2021/06/22 03:52:20;;;;;;;16.80;16.00;;;18.90;99.90;;;;;;5103084;28;20441;-71
2021/06/22 03:54:46;;;;;;;17.80;16.47;;;19.00;99.90;;;;;;5101779;28;20955;-71
2021/06/22 03:57:15;;;;;;;16.63;15.63;;;19.10;99.90;;;;;;5100955;28;20444;-71
2021/06/22 03:59:42;;;;;;;17.17;16.10;;;19.10;99.90;;;;;;5100562;28;20535;-71
2021/06/22 04:02:09;;;;;;;19.23;18.33;;;19.20;99.90;;;;;;5101562;28;20452;-69
2021/06/22 04:04:35;;;;;;;20.30;19.40;;;19.30;99.90;;;;;;5102634;28;20572;-69
2021/06/22 04:07:02;;;;;;;20.50;19.20;;;19.30;99.90;;;;;;5098369;28;20446;-69
2021/06/22 04:09:29;;;;;;;23.83;21.97;;;19.30;99.90;;;;;;5101430;28;20476;-69
2021/06/22 04:11:56;;;;;;;21.93;20.50;;;19.20;99.90;;;;;;5102547;28;20429;-69
2021/06/22 04:14:24;;;;;;;21.77;20.70;;;19.20;99.90;;;;;;5101232;28;20607;-69
2021/06/22 04:16:51;;;;;;;21.73;20.73;;;19.20;99.90;;;;;;5100859;28;21009;-69
2021/06/22 04:19:18;;;;;;;22.23;21.07;;;19.30;99.90;;;;;;5102264;28;20477;-70
2021/06/22 04:21:45;;;;;;;21.50;20.30;;;19.40;99.90;;;;;;5100916;28;20791;-71
2021/06/22 04:24:12;;;;;;;22.33;21.30;;;19.40;99.90;;;;;;5103250;28;20443;-70
2021/06/22 04:26:38;;;;;;;23.90;22.60;;;19.50;99.90;;;;;;5100066;28;20481;-69
2021/06/22 04:29:05;;;;;;;25.23;23.93;;;19.50;99.90;;;;;;5101485;28;20440;-69
2021/06/22 04:31:33;;;;;;;25.37;24.00;;;19.60;99.90;;;;;;5101977;28;20445;-69
2021/06/22 04:34:00;;;;;;;24.47;22.97;;;19.60;99.90;;;;;;5100387;28;20439;-70
2021/06/22 04:36:27;;;;;;;24.40;22.90;;;19.50;99.90;;;;;;5101766;28;20441;-69
2021/06/22 04:38:54;;;;;;;25.30;23.60;;;19.60;99.90;;;;;;5101977;28;20443;-69
2021/06/22 04:41:23;;;;;;;25.97;24.53;;;19.60;99.90;;;;;;5100091;28;20450;-69
2021/06/22 04:43:50;;;;;;;26.13;24.73;;;19.60;99.90;;;;;;5100882;28;20472;-70
2021/06/22 04:46:17;;;;;;;25.40;24.07;;;19.50;99.90;;;;;;5111602;28;20572;-70
2021/06/22 04:48:46;;;;;;;25.93;24.33;;;19.60;99.90;;;;;;5112554;28;20456;-70
2021/06/22 04:51:12;;;;;;;29.10;27.30;;;19.50;99.90;;;;;;5112246;28;20445;-70
2021/06/22 04:53:39;;;;;;;28.37;26.70;;;19.50;99.90;;;;;;5112222;28;20449;-69
2021/06/22 04:56:06;;;;;;;30.17;28.17;;;19.60;99.90;;;;;;5112342;28;20444;-68
2021/06/22 04:58:33;;;;;;;27.97;26.00;;;19.60;99.90;;;;;;5112214;28;20447;-68
2021/06/22 05:01:05;;;;;;;29.30;27.60;;;19.70;99.90;;;;;;5111994;28;20446;-68
2021/06/22 05:03:32;;;;;;;27.97;26.30;;;19.70;99.90;;;;;;5112151;28;20445;-69
2021/06/22 05:06:00;;;;;;;28.77;26.53;;;19.80;99.90;;;;;;5112315;28;20488;-69
2021/06/22 05:08:27;;;;;;;28.90;26.80;;;19.80;99.90;;;;;;5111920;28;20449;-69
2021/06/22 05:10:54;;;;;;;27.37;25.87;;;19.80;99.90;;;;;;5111911;28;20794;-70
2021/06/22 05:13:21;;;;;;;26.90;25.40;;;19.90;99.90;;;;;;5111962;28;20506;-71
2021/06/22 05:15:48;;;;;;;24.70;23.20;;;20.00;99.90;;;;;;5112001;28;20464;-71
2021/06/22 05:18:14;;;;;;;23.50;22.20;;;19.90;99.90;;;;;;5111936;28;20453;-71
2021/06/22 05:20:41;;;;;;;23.00;21.70;;;19.90;99.90;;;;;;5111548;28;20477;-72
2021/06/22 05:23:09;;;;;;;21.10;19.90;;;19.90;99.90;;;;;;5111597;28;20448;-72
2021/06/22 05:25:36;;;;;;;20.97;19.73;;;19.90;99.90;;;;;;5111758;28;20496;-71
2021/06/22 05:28:03;;;;;;;22.27;20.83;;;20.00;99.90;;;;;;5111926;28;20441;-71
2021/06/22 05:30:30;;;;;;;20.67;19.57;;;20.10;99.90;;;;;;5112087;28;20445;-72
2021/06/22 05:32:57;;;;;;;20.77;19.27;;;20.30;99.90;;;;;;5111639;28;20441;-72
2021/06/22 05:35:24;;;;;;;19.27;18.03;;;20.40;99.90;;;;;;5111566;28;20958;-72
2021/06/22 05:37:51;;;;;;;19.50;18.37;;;20.60;99.90;;;;;;5111476;28;20455;-73
2021/06/22 05:40:19;;;;;;;18.50;17.60;;;20.70;99.90;;;;;;5111511;28;20465;-73
2021/06/22 05:42:46;;;;;;;18.80;17.80;;;20.80;99.90;;;;;;5111680;28;20468;-72
2021/06/22 05:45:13;;;;;;;19.60;18.27;;;20.90;99.90;;;;;;5111529;28;20454;-72
2021/06/22 05:47:40;;;;;;;18.57;17.20;;;21.10;99.90;;;;;;5111483;28;20449;-73
2021/06/22 05:50:08;;;;;;;17.97;16.97;;;21.40;99.90;;;;;;5111737;28;20460;-72
2021/06/22 05:52:35;;;;;;;18.00;17.10;;;21.40;99.90;;;;;;5111420;28;20454;-74
2021/06/22 05:55:02;;;;;;;18.50;17.50;;;21.60;99.90;;;;;;5111428;28;20954;-74
2021/06/22 05:57:30;;;;;;;18.83;17.83;;;21.80;99.90;;;;;;5111440;28;20449;-72
2021/06/22 05:59:57;;;;;;;18.47;17.47;;;22.10;99.90;;;;;;5111729;28;20446;-72
2021/06/22 06:02:23;;;;;;;18.63;17.57;;;22.40;99.90;;;;;;5113275;28;20809;-71
2021/06/22 06:04:50;;;;;;;20.83;19.50;;;22.20;99.90;;;;;;5115604;28;20453;-71
2021/06/22 06:07:17;;;;;;;21.37;20.07;;;22.50;99.90;;;;;;5115476;28;21017;-72
2021/06/22 06:09:45;;;;;;;19.47;18.57;;;22.70;99.90;;;;;;5115307;28;20880;-72
2021/06/22 06:12:12;;;;;;;20.27;18.87;;;22.90;99.90;;;;;;5115516;28;20834;-72
2021/06/22 06:14:40;;;;;;;20.30;18.97;;;23.00;99.90;;;;;;5115403;28;20452;-72
2021/06/22 06:17:07;;;;;;;21.00;19.63;;;23.20;99.90;;;;;;5115206;28;20453;-73
2021/06/22 06:19:34;;;;;;;19.70;18.60;;;23.40;99.90;;;;;;5111326;28;20483;-74
2021/06/22 06:22:00;;;;;;;20.27;19.07;;;23.50;99.90;;;;;;5115362;28;20449;-73
2021/06/22 06:24:27;;;;;;;20.30;18.90;;;23.40;99.90;;;;;;5115448;28;20452;-73
2021/06/22 06:27:01;;;;;;;21.10;19.90;;;23.50;99.90;;;;;;5114836;28;20492;-74
2021/06/22 06:29:36;;;;;;;21.70;20.50;;;23.40;99.90;;;;;;5114988;28;20871;-73
2021/06/22 06:32:04;;;;;;;21.93;20.73;;;23.50;99.90;;;;;;5114584;28;20504;-73
2021/06/22 06:34:31;;;;;;;20.90;19.80;;;23.40;99.90;;;;;;5114696;28;20449;-73
2021/06/22 06:37:37;;;;;;;19.20;18.20;;;23.50;99.90;;;;;;5114616;28;20438;-72
2021/06/22 06:40:05;;;;;;;20.33;19.13;;;23.50;99.90;;;;;;5111372;27;20465;-73
2021/06/22 06:42:32;;;;;;;21.90;20.50;;;23.20;99.90;;;;;;5114803;28;20467;-73
2021/06/22 06:44:58;;;;;;;18.70;17.70;;;23.10;99.90;;;;;;5114771;28;20494;-73
2021/06/22 06:47:26;;;;;;;19.23;18.13;;;23.10;99.90;;;;;;5114511;28;20488;-73
2021/06/22 06:49:53;;;;;;;21.37;20.17;;;23.20;99.90;;;;;;5114623;28;20444;-73
2021/06/22 06:52:20;;;;;;;22.07;20.17;;;23.10;99.90;;;;;;5114409;28;20453;-72
2021/06/22 06:54:47;;;;;;;21.77;20.53;;;23.10;99.90;;;;;;5114559;28;20445;-71
2021/06/22 06:57:13;;;;;;;22.87;21.47;;;23.00;99.90;;;;;;5114810;28;20471;-71
2021/06/22 06:59:40;;;;;;;22.30;20.80;;;22.90;99.90;;;;;;5114552;28;20453;-72
2021/06/22 07:02:07;;;;;;;23.77;22.47;;;22.90;99.90;;;;;;5114392;28;20453;-71
2021/06/22 07:04:35;;;;;;;22.10;20.80;;;22.90;99.90;;;;;;5114227;28;20447;-72
2021/06/22 07:07:02;;;;;;;22.57;21.20;;;23.10;99.90;;;;;;5114088;28;20548;-72
2021/06/22 07:09:28;;;;;;;21.90;20.60;;;23.20;99.90;;;;;;5114394;28;20824;-71
2021/06/22 07:11:56;;;;;;;22.03;20.80;;;23.30;99.90;;;;;;5114289;28;20472;-72
2021/06/22 07:14:24;;;;;;;22.40;21.10;;;23.60;99.90;;;;;;5114185;28;20453;-72
2021/06/22 07:16:50;;;;;;;21.10;20.00;;;23.60;99.90;;;;;;5112458;28;20471;-72
2021/06/22 07:19:17;;;;;;;20.30;19.30;;;23.50;99.90;;;;;;5113626;28;20484;-72
2021/06/22 07:21:46;;;;;;;21.53;20.13;;;23.70;99.90;;;;;;5114426;28;20469;-72
2021/06/22 07:24:13;;;;;;;21.27;19.60;;;24.20;99.90;;;;;;5112549;28;20536;-72
2021/06/22 07:26:40;;;;;;;19.03;17.93;;;24.60;99.90;;;;;;5113802;28;21006;-71
2021/06/22 07:29:07;;;;;;;19.60;18.50;;;25.00;99.90;;;;;;5114025;28;20844;-71
2021/06/22 07:31:35;;;;;;;19.07;17.50;;;25.30;99.90;;;;;;5111578;27;20453;-71
2021/06/22 07:34:02;;;;;;;18.33;17.23;;;25.40;99.90;;;;;;5113893;28;20445;-72
2021/06/22 07:36:28;;;;;;;19.23;18.23;;;25.60;99.90;;;;;;5113852;28;20934;-72
2021/06/22 07:38:56;;;;;;;22.17;20.67;;;25.70;99.90;;;;;;5113918;28;20453;-72
2021/06/22 07:41:23;;;;;;;19.53;18.20;;;25.30;99.90;;;;;;5113545;28;20472;-73
2021/06/22 07:43:50;;;;;;;18.87;17.17;;;25.40;99.90;;;;;;5113548;28;20446;-72
2021/06/22 07:46:17;;;;;;;20.20;18.80;;;25.50;99.90;;;;;;5113645;28;20477;-71
2021/06/22 07:48:43;;;;;;;17.90;17.00;;;25.90;99.90;;;;;;5113681;28;20464;-72
2021/06/22 07:51:10;;;;;;;17.93;17.03;;;27.10;99.90;;;;;;5113528;28;20445;-72
2021/06/22 07:53:37;;;;;;;19.53;18.47;;;27.70;99.90;;;;;;5112430;28;20457;-72
2021/06/22 07:56:05;;;;;;;15.77;15.03;;;28.10;99.90;;;;;;5113065;28;20454;-72
2021/06/22 07:58:32;;;;;;;15.50;14.63;;;27.90;99.90;;;;;;5113703;28;20437;-71
2021/06/22 08:00:59;;;;;;;16.70;15.80;;;27.40;99.90;;;;;;5114094;28;20445;-72
2021/06/22 08:03:27;;;;;;;16.50;15.70;;;26.70;99.90;;;;;;5112916;28;20441;-71
2021/06/22 08:05:54;;;;;;;17.87;16.87;;;26.40;99.90;;;;;;5112967;28;20930;-71
2021/06/22 08:08:22;;;;;;;17.17;16.17;;;26.20;99.90;;;;;;5112524;28;20498;-71
2021/06/22 08:10:51;;;;;;;18.70;17.37;;;25.90;99.90;;;;;;5113119;28;20484;-71
2021/06/22 08:13:20;;;;;;;19.10;17.83;;;25.70;99.90;;;;;;5112291;28;20445;-70
2021/06/22 08:15:47;;;;;;;16.70;15.80;;;25.60;99.90;;;;;;5112446;28;20446;-70
2021/06/22 08:18:14;;;;;;;19.17;17.83;;;25.60;99.90;;;;;;5111630;28;20816;-70
2021/06/22 08:20:41;;;;;;;18.80;17.63;;;25.40;99.90;;;;;;5112043;28;20473;-70
2021/06/22 08:23:08;;;;;;;19.77;18.67;;;24.80;99.90;;;;;;5100685;28;20449;-72
2021/06/22 08:25:35;;;;;;;18.20;17.10;;;25.00;99.90;;;;;;5091225;28;20453;-69
2021/06/22 08:28:02;;;;;;;17.60;16.50;;;24.70;99.90;;;;;;5092161;28;20999;-70
2021/06/22 08:30:31;;;;;;;16.93;15.90;;;24.60;99.90;;;;;;5092587;28;20450;-70
2021/06/22 08:32:59;;;;;;;16.37;15.10;;;24.60;99.90;;;;;;5092757;28;20469;-70
2021/06/22 08:35:26;;;;;;;17.73;16.60;;;24.40;99.90;;;;;;5092578;28;20447;-71
2021/06/22 08:37:53;;;;;;;21.37;20.10;;;24.30;99.90;;;;;;5092483;28;20451;-71
2021/06/22 08:40:20;;;;;;;22.93;21.33;;;24.20;99.90;;;;;;5092298;28;20477;-72
2021/06/22 08:42:46;;;;;;;24.00;22.77;;;24.10;99.90;;;;;;5092444;28;20461;-72
2021/06/22 08:45:15;;;;;;;23.97;22.43;;;23.90;99.90;;;;;;5092477;28;20457;-73
2021/06/22 08:47:44;;;;;;;22.27;20.90;;;23.80;99.90;;;;;;5092286;28;20482;-72
2021/06/22 08:50:12;;;;;;;23.83;22.60;;;23.40;99.90;;;;;;5092197;28;20454;-72
2021/06/22 08:52:39;;;;;;;22.07;20.80;;;23.10;99.90;;;;;;5091995;28;20450;-72
2021/06/22 08:55:07;;;;;;;20.93;19.93;;;22.80;99.90;;;;;;5095439;28;20461;-73
2021/06/22 08:57:35;;;;;;;22.00;20.20;;;22.80;99.90;;;;;;5112398;28;20445;-72
2021/06/22 09:00:04;;;;;;;20.13;19.00;;;22.90;99.90;;;;;;5112122;28;20803;-73
2021/06/22 09:02:30;;;;;;;22.60;21.33;;;22.80;99.90;;;;;;5112146;28;20446;-72
2021/06/22 09:04:59;;;;;;;22.50;21.30;;;22.70;99.90;;;;;;5112089;28;20457;-71
2021/06/22 09:07:47;;;;;;;23.70;22.20;;;22.50;99.90;;;;;;5111711;28;20507;-73
2021/06/22 09:10:25;;;;;;;22.23;21.03;;;22.30;99.90;;;;;;5112165;28;20477;-73
2021/06/22 09:12:53;;;;;;;25.20;23.53;;;22.40;99.90;;;;;;5111847;28;20480;-73
2021/06/22 09:15:26;;;;;;;28.97;27.40;;;22.50;99.90;;;;;;5111897;28;20468;-74
2021/06/22 09:17:53;;;;;;;29.50;27.90;;;22.50;99.90;;;;;;5111902;28;20446;-74
2021/06/22 09:20:40;;;;;;;26.73;24.90;;;22.50;99.90;;;;;;5111831;28;20485;-74
2021/06/22 09:23:17;;;;;;;26.10;24.50;;;22.50;99.90;;;;;;5111960;28;20445;-74
2021/06/22 09:25:45;;;;;;;22.77;21.40;;;22.50;99.90;;;;;;5111991;28;20453;-74
2021/06/22 09:28:12;;;;;;;22.83;21.63;;;22.80;99.90;;;;;;5111715;28;20807;-74
2021/06/22 09:30:44;;;;;;;23.63;22.20;;;23.20;99.90;;;;;;5111494;28;20445;-74
2021/06/22 09:33:26;;;;;;;23.40;21.93;;;23.30;99.90;;;;;;5111645;28;20494;-74
2021/06/22 09:36:10;;;;;;;23.57;21.87;;;23.10;99.90;;;;;;5111228;28;20445;-75
2021/06/22 09:38:38;;;;;;;21.10;19.83;;;23.00;99.90;;;;;;5111658;28;20441;-75
2021/06/22 09:41:11;;;;;;;22.37;21.17;;;23.00;99.90;;;;;;5111352;28;20473;-74
2021/06/22 09:43:40;;;;;;;23.03;21.80;;;23.20;99.90;;;;;;5111671;28;20449;-75
2021/06/22 09:46:08;;;;;;;21.27;20.07;;;23.30;99.90;;;;;;5111797;28;20965;-74
2021/06/22 09:48:44;;;;;;;22.50;21.30;;;23.20;99.90;;;;;;5111531;28;20900;-73
2021/06/22 09:51:12;;;;;;;24.57;23.23;;;23.30;99.90;;;;;;5111631;28;20826;-73
2021/06/22 09:53:39;;;;;;;24.30;22.60;;;23.20;99.90;;;;;;5111495;28;20453;-74
2021/06/22 09:56:18;;;;;;;23.53;22.10;;;23.20;99.90;;;;;;5111422;28;20886;-74
2021/06/22 09:58:45;;;;;;;21.83;20.63;;;23.10;99.90;;;;;;5111487;28;20953;-73
2021/06/22 10:01:42;;;;;;;23.10;21.50;;;23.10;99.90;;;;;;5111627;28;20445;-73
2021/06/22 10:04:20;;;;;;;22.43;21.03;;;23.10;99.90;;;;;;5111179;28;20456;-73
2021/06/22 10:06:53;;;;;;;22.23;20.83;;;23.30;99.90;;;;;;5110691;28;20449;-73
2021/06/22 10:09:25;;;;;;;22.13;20.60;;;23.20;99.90;;;;;;5111290;28;20456;-72
2021/06/22 10:11:57;;;;;;;21.30;20.10;;;23.50;99.90;;;;;;5111216;28;21093;-73
2021/06/22 10:14:25;;;;;;;21.63;20.53;;;23.70;99.90;;;;;;5111287;28;21010;-73
2021/06/22 10:16:53;;;;;;;21.93;20.73;;;23.90;99.90;;;;;;5110703;28;20449;-73
2021/06/22 10:19:23;;;;;;;22.93;21.53;;;23.90;99.90;;;;;;5110825;28;20982;-73
2021/06/22 10:21:51;;;;;;;20.87;19.60;;;24.10;99.90;;;;;;5105896;28;20516;-73
2021/06/22 10:24:19;;;;;;;21.80;20.40;;;24.40;99.90;;;;;;5090728;28;20474;-72
2021/06/22 10:26:47;;;;;;;20.70;19.60;;;24.50;99.90;;;;;;5090923;28;20532;-73
2021/06/22 10:29:18;;;;;;;18.37;17.47;;;24.30;99.90;;;;;;5090898;28;20975;-73
2021/06/22 10:31:45;;;;;;;17.90;16.73;;;24.10;99.90;;;;;;5090905;28;20877;-73
2021/06/22 10:34:12;;;;;;;19.87;18.60;;;23.70;99.90;;;;;;5090944;28;20454;-73
2021/06/22 10:36:46;;;;;;;18.80;17.90;;;23.40;99.90;;;;;;5090806;28;20450;-73
2021/06/22 10:39:18;;;;;;;18.37;17.43;;;23.10;99.90;;;;;;5090964;28;20932;-71
2021/06/22 10:41:46;;;;;;;20.13;18.80;;;22.90;99.90;;;;;;5090695;28;20546;-72
2021/06/22 10:44:40;;;;;;;19.67;18.37;;;22.80;99.90;;;;;;5090791;28;20446;-71
2021/06/22 10:47:30;;;;;;;19.77;18.67;;;22.60;99.90;;;;;;5090452;28;21055;-71
2021/06/22 10:50:07;;;;;;;19.03;18.10;;;22.50;99.90;;;;;;5094481;28;20441;-70
2021/06/22 10:52:54;;;;;;;20.37;19.10;;;22.20;99.90;;;;;;5094458;28;20441;-71
2021/06/22 10:55:44;;;;;;;33.70;32.00;;;21.90;99.90;;;;;;5094304;28;20637;-71
2021/06/22 10:58:12;;;;;;;38.20;36.30;;;21.70;99.90;;;;;;5093936;28;20542;-72
2021/06/22 11:01:13;;;;;;;37.30;35.40;;;21.20;99.90;;;;;;5094255;28;20446;-72
2021/06/22 11:03:40;;;;;;;39.60;37.30;;;21.00;99.90;;;;;;5094212;28;20446;-73
2021/06/22 11:06:37;;;;;;;40.43;38.40;;;20.70;99.90;;;;;;5095715;28;20450;-73
2021/06/22 11:09:22;;;;;;;42.60;40.23;;;20.50;99.90;;;;;;5114420;28;20473;-74
2021/06/22 11:12:22;;;;;;;48.63;45.70;;;20.40;99.90;;;;;;5114513;28;20452;-74
2021/06/22 11:15:04;;;;;;;51.80;49.00;;;20.30;99.90;;;;;;5114379;28;20441;-72
2021/06/22 11:17:59;;;;;;;50.47;47.67;;;20.20;99.90;;;;;;5114149;28;20978;-74
2021/06/22 11:20:29;;;;;;;49.40;46.70;;;20.30;99.90;;;;;;5114078;28;20475;-75
2021/06/22 11:23:04;;;;;;;50.03;47.33;;;20.20;99.90;;;;;;5114104;28;20540;-74
2021/06/22 11:25:51;;;;;;;50.87;48.07;;;20.10;99.90;;;;;;5114345;28;20456;-73
2021/06/22 11:28:21;;;;;;;49.20;46.60;;;20.10;99.90;;;;;;5114086;28;20483;-72
2021/06/22 11:30:59;;;;;;;44.00;41.30;;;20.20;99.90;;;;;;5114041;28;20888;-74
2021/06/22 11:33:35;;;;;;;39.67;37.47;;;20.10;99.90;;;;;;5114031;28;20937;-73
2021/06/22 11:36:27;;;;;;;39.03;36.73;;;20.00;99.90;;;;;;5113840;28;20455;-73
2021/06/22 11:39:17;;;;;;;34.33;32.43;;;20.00;99.90;;;;;;5113861;28;20965;-74
2021/06/22 11:42:18;;;;;;;34.00;32.03;;;19.80;99.90;;;;;;5113957;28;20469;-74
2021/06/22 11:44:46;;;;;;;32.63;30.83;;;19.90;99.90;;;;;;5113859;28;20555;-74
2021/06/22 11:47:46;;;;;;;29.60;28.00;;;20.00;99.90;;;;;;5113876;28;20449;-74
2021/06/22 11:50:34;;;;;;;27.80;26.00;;;19.90;99.90;;;;;;5113892;28;20856;-74
2021/06/22 11:53:07;;;;;;;24.87;23.40;;;20.00;99.90;;;;;;5113712;28;20939;-74
2021/06/22 11:55:50;;;;;;;24.60;23.30;;;20.00;99.90;;;;;;5113661;28;20442;-74
2021/06/22 11:58:23;;;;;;;22.57;21.23;;;20.10;99.90;;;;;;5111592;28;20461;-72
2021/06/22 12:00:50;;;;;;;24.37;22.97;;;20.20;99.90;;;;;;5112595;28;20480;-73
2021/06/22 12:03:19;;;;;;;24.27;22.67;;;20.50;99.90;;;;;;5112856;28;20525;-73
2021/06/22 12:05:46;;;;;;;22.73;21.07;;;20.60;99.90;;;;;;5094563;28;20927;-72
2021/06/22 12:08:13;;;;;;;20.03;19.03;;;20.70;99.90;;;;;;5092571;28;20829;-73
2021/06/22 12:10:49;;;;;;;20.77;19.53;;;20.60;99.90;;;;;;5092630;28;20446;-73
2021/06/22 12:13:33;;;;;;;20.50;19.30;;;20.60;99.90;;;;;;5092822;28;20940;-73
2021/06/22 12:16:14;;;;;;;20.60;19.30;;;20.60;99.90;;;;;;5092867;28;20446;-74
2021/06/22 12:18:41;;;;;;;20.80;19.40;;;20.60;99.90;;;;;;5091861;28;20446;-72
2021/06/22 12:21:08;;;;;;;20.17;18.87;;;20.50;99.90;;;;;;5091048;28;20478;-74
2021/06/22 12:23:35;;;;;;;19.30;18.20;;;20.50;99.90;;;;;;5092298;28;20454;-73
2021/06/22 12:26:02;;;;;;;18.90;17.90;;;20.50;99.90;;;;;;5092441;28;20962;-73
2021/06/22 12:28:35;;;;;;;21.10;19.47;;;20.30;99.90;;;;;;5092300;28;20481;-72
2021/06/22 12:31:04;;;;;;;20.83;19.37;;;20.30;99.90;;;;;;5092257;28;20822;-72
2021/06/22 12:33:37;;;;;;;21.50;20.20;;;20.30;99.90;;;;;;5092184;28;20449;-73
2021/06/22 12:36:07;;;;;;;21.67;20.37;;;20.30;99.90;;;;;;5091908;28;20454;-72
2021/06/22 12:38:34;;;;;;;19.93;18.73;;;20.20;99.90;;;;;;5091940;28;20446;-71
2021/06/22 12:41:02;;;;;;;20.20;19.10;;;20.00;99.90;;;;;;5091992;28;20474;-72